Date,TemperatureHighF,TemperatureAvgF,TemperatureLowF,DewpointHighF,DewpointAvgF,DewpointLowF,HumidityHigh,HumidityAvg,HumidityLow,PressureMaxIn,PressureMinIn,WindSpeedMaxMPH,WindSpeedAvgMPH,GustSpeedMaxMPH,PrecipitationSumIn
2013-1-1,16.0,10.4,3.0,9.0,2.5,-4.0,83,71,45,0.00,40.00,6,3,15,0.01
2013-1-2,20.0,16.4,13.0,14.0,11.8,9.0,89,82,72,0.00,40.00,6,3,14,0.01
2013-1-3,24.0,18.7,16.0,18.0,12.4,8.0,88,76,60,0.00,40.00,8,4,17,0.01
2013-1-4,36.0,22.0,11.0,22.0,12.6,6.0,83,67,46,0.00,40.00,7,5,17,0.09
2013-1-5,37.0,22.1,12.0,20.0,15.3,9.0,90,76,47,0.00,40.00,6,2,12,0.13
2013-1-6,26.0,21.4,12.0,24.0,16.7,9.0,91,82,73,0.00,40.00,7,3,16,0.01
2013-1-7,38.0,27.1,15.0,21.0,16.0,7.0,87,63,47,0.00,40.00,9,6,22,0.10
2013-1-8,42.0,27.2,9.0,25.0,18.0,6.0,91,71,40,0.00,40.00,8,3,19,0.09
2013-1-9,34.0,29.7,19.0,27.0,22.0,13.0,89,73,62,0.00,40.00,11,6,27,0.01
2013-1-10,46.0,29.8,12.0,24.0,12.6,6.0,89,56,19,0.00,40.00,8,5,20,0.03
2013-1-11,40.0,36.3,33.0,38.0,34.5,29.0,96,93,86,0.00,40.00,8,4,19,0.06
2013-1-12,44.0,32.5,17.0,41.0,26.4,7.0,96,78,65,0.00,40.00,8,6,27,0.03
2013-1-13,17.0,13.7,9.0,7.0,5.2,3.0,79,69,59,0.00,40.00,6,4,13,0.02
2013-1-14,19.0,10.2,4.0,5.0,1.4,-3.0,79,67,48,0.00,40.00,5,4,15,0.02
2013-1-15,26.0,15.1,3.0,9.0,2.1,-4.0,73,57,32,0.00,40.00,8,5,19,0.01
2013-1-16,27.0,21.4,12.0,24.0,13.0,0.0,89,70,53,0.00,40.00,9,7,22,0.00
2013-1-17,10.0,4.3,0.0,3.0,-1.7,-5.0,78,75,70,0.00,40.00,7,4,18,0.00
2013-1-18,15.0,5.4,-11.0,10.0,0.2,-18.0,85,79,70,0.00,40.00,4,2,10,0.00
2013-1-19,32.0,18.5,6.0,29.0,15.0,-0.0,91,86,79,0.00,40.00,10,4,24,0.01
2013-1-20,7.0,2.6,-4.0,0.0,-3.6,-11.0,80,74,69,0.00,40.00,9,5,22,0.01
2013-1-21,-4.0,-8.5,-13.0,-10.0,-16.1,-21.0,73,68,63,0.00,40.00,5,4,15,0.00
2013-1-22,-1.0,-9.6,-18.0,-10.0,-17.5,-26.0,71,67,64,0.00,40.00,4,2,9,0.00
2013-1-23,8.0,-4.5,-19.0,2.0,-11.4,-27.0,79,71,65,0.00,40.00,6,3,12,0.00
2013-1-24,6.0,-3.6,-17.0,-1.0,-10.6,-25.0,77,71,66,0.00,40.00,4,1,8,0.00
2013-1-25,20.0,11.5,5.0,15.0,7.0,-1.0,86,82,77,0.00,40.00,4,3,10,0.00
2013-1-26,21.0,15.8,11.0,14.0,11.5,7.0,87,83,69,0.00,40.00,5,2,10,0.00
2013-1-27,33.0,23.6,13.0,26.0,18.4,9.0,91,81,69,0.00,40.00,5,4,12,0.01
2013-1-28,36.0,30.0,27.0,30.0,27.7,25.0,96,91,79,0.00,40.00,5,2,12,0.01
2013-1-29,35.0,31.7,30.0,34.0,30.0,27.0,97,94,92,0.00,40.00,7,5,16,0.00
2013-1-30,29.0,18.7,10.0,27.0,14.7,6.0,91,84,80,0.00,40.00,7,5,19,0.00
2013-1-31,11.0,8.9,7.0,5.0,3.1,2.0,82,77,70,0.00,40.00,7,5,15,0.00
2013-2-1,7.0,-0.5,-14.0,2.0,-8.6,-21.0,80,68,53,0.00,40.00,5,4,13,0.00
2013-2-2,10.0,-2.3,-20.0,0.0,-10.9,-28.0,76,66,58,0.00,40.00,5,2,10,0.00
2013-2-3,10.0,4.2,-3.0,3.0,-1.7,-9.0,80,76,68,0.00,40.00,7,4,17,0.00
2013-2-4,15.0,-1.9,-14.0,3.0,-9.6,-21.0,77,69,59,0.00,40.00,4,1,11,0.00
2013-2-5,20.0,8.8,-9.0,14.0,3.7,-16.0,84,79,72,0.00,40.00,7,2,14,0.00
2013-2-6,21.0,9.3,-9.0,14.0,3.3,-16.0,87,76,58,0.00,40.00,4,2,9,0.00
2013-2-7,23.0,18.2,15.0,19.0,14.5,8.0,89,86,78,0.00,40.00,7,4,18,0.00
2013-2-8,26.0,12.9,-1.0,11.0,3.6,-99.9,84,71,48,0.00,40.00,6,3,12,0.00
2013-2-9,36.0,18.3,7.0,22.0,10.8,3.0,84,73,56,0.00,40.00,7,4,17,0.00
2013-2-10,31.0,25.2,18.0,30.0,22.4,14.0,95,89,82,0.00,40.00,8,4,17,0.00
2013-2-11,31.0,25.9,19.0,30.0,23.9,16.0,97,92,86,0.00,40.00,7,4,19,0.00
2013-2-12,25.0,20.4,15.0,18.0,16.3,9.0,90,84,65,0.00,40.00,6,4,13,0.00
2013-2-13,44.0,26.4,10.0,29.0,20.7,7.0,90,80,52,0.00,40.00,4,2,10,0.00
2013-2-14,27.0,22.5,13.0,25.0,17.8,5.0,92,83,69,0.00,40.00,8,4,17,0.00
2013-2-15,17.0,10.7,3.0,9.0,4.9,-2.0,84,77,68,0.00,40.00,6,3,15,0.00
2013-2-16,15.0,4.5,-10.0,7.0,-4.2,-17.0,80,67,46,0.00,40.00,5,2,14,0.00
2013-2-17,28.0,9.4,-19.0,6.0,-5.0,-27.0,71,53,36,0.00,40.00,7,4,17,0.00
2013-2-18,38.0,27.1,18.0,26.0,18.1,6.0,94,69,56,0.00,40.00,8,5,19,0.00
2013-2-19,27.0,13.1,8.0,26.0,8.0,2.0,94,80,64,0.00,40.00,10,8,27,0.00
2013-2-20,16.0,8.5,-11.0,7.0,2.2,-18.0,80,76,67,0.00,40.00,8,6,18,0.00
2013-2-21,22.0,13.3,-7.0,17.0,8.9,-12.0,91,82,72,0.00,40.00,5,4,15,0.00
2013-2-22,26.0,21.6,18.0,22.0,18.7,15.0,91,88,81,0.00,40.00,5,4,13,0.00
2013-2-23,33.0,23.1,14.0,25.0,19.5,11.0,91,86,72,0.00,40.00,7,3,16,0.00
2013-2-24,33.0,25.3,17.0,23.0,19.3,15.0,92,79,60,0.00,40.00,4,2,10,0.00
2013-2-25,36.0,27.2,16.0,26.0,21.4,14.0,92,80,57,0.00,40.00,4,2,10,0.00
2013-2-26,42.0,29.7,20.0,26.0,22.7,18.0,94,77,46,0.00,40.00,7,4,17,0.00
2013-2-27,32.0,29.0,27.0,25.0,23.2,22.0,86,79,68,0.00,40.00,8,7,21,0.00
2013-2-28,29.0,23.6,18.0,23.0,16.8,9.0,84,75,64,0.00,40.00,8,6,20,0.00
2013-3-1,26.0,17.7,5.0,11.0,8.2,-1.0,82,67,41,0.00,40.00,7,5,16,0.00
2013-3-2,29.0,12.2,-3.0,9.0,2.7,-11.0,84,67,40,0.00,40.00,6,3,16,0.00
2013-3-3,33.0,9.2,-13.0,11.0,-3.5,-20.0,82,59,31,0.00,40.00,5,2,10,0.00
2013-3-4,36.0,14.7,-7.0,18.0,4.3,-13.0,82,65,34,0.00,40.00,7,3,16,0.00
2013-3-5,25.0,20.4,14.0,19.0,15.2,7.0,85,80,72,0.00,40.00,7,4,15,0.00
2013-3-6,26.0,21.8,16.0,21.0,17.0,11.0,93,82,64,0.00,40.00,6,3,13,0.00
2013-3-7,34.0,20.4,10.0,15.0,12.3,7.0,89,73,45,0.00,40.00,4,2,8,0.00
2013-3-8,45.0,27.3,11.0,19.0,13.9,7.0,88,61,31,0.00,40.00,7,4,14,0.00
2013-3-9,34.0,30.7,26.0,31.0,24.6,17.0,94,78,60,0.00,40.00,7,5,17,0.00
2013-3-10,33.0,31.5,28.0,32.0,28.2,22.0,97,88,77,0.00,40.00,8,5,20,0.00
2013-3-11,28.0,25.1,20.0,26.0,22.0,17.0,94,88,79,0.00,40.00,8,6,19,0.00
2013-3-12,20.0,17.9,16.0,17.0,13.5,11.0,89,83,70,0.00,40.00,7,4,15,0.00
2013-3-13,29.0,15.5,0.0,12.0,6.3,-5.0,86,69,44,0.00,40.00,7,3,16,0.00
2013-3-14,42.0,17.8,-6.0,25.0,6.0,-12.0,82,63,32,0.00,40.00,6,2,15,0.00
2013-3-15,32.0,24.4,11.0,28.0,13.2,0.0,87,63,39,0.00,40.00,7,5,15,0.00
2013-3-16,26.0,14.5,0.0,13.0,6.2,-5.0,85,70,47,0.00,40.00,8,4,20,0.00
2013-3-17,31.0,14.8,-3.0,2.0,-3.2,-9.0,76,48,23,0.00,40.00,7,4,16,0.00
2013-3-18,34.0,23.8,16.0,26.0,15.8,2.0,92,72,47,0.00,40.00,9,6,19,0.00
2013-3-19,25.0,19.6,17.0,23.0,15.3,12.0,93,83,70,0.00,40.00,10,6,23,0.00
2013-3-20,21.0,15.6,12.0,16.0,10.8,8.0,86,81,73,0.00,40.00,8,5,17,0.00
2013-3-21,22.0,16.5,0.0,14.0,11.5,-7.0,87,80,68,0.00,40.00,6,4,13,0.00
2013-3-22,32.0,19.2,-3.0,24.0,13.8,-9.0,89,79,66,0.00,40.00,5,2,12,0.00
2013-3-23,32.0,25.6,20.0,24.0,19.4,17.0,89,78,63,0.00,40.00,5,2,11,0.00
2013-3-24,31.0,25.2,17.0,24.0,18.7,11.0,87,76,59,0.00,40.00,6,3,14,0.00
2013-3-25,32.0,24.2,12.0,24.0,18.3,9.0,92,79,60,0.00,40.00,7,4,18,0.00
2013-3-26,37.0,30.1,24.0,29.0,24.2,19.0,94,79,58,0.00,40.00,6,4,15,0.00
2013-3-27,45.0,28.5,13.0,27.0,16.8,10.0,92,67,32,0.00,40.00,7,3,15,0.00
2013-3-28,49.0,38.1,23.0,22.0,18.4,14.0,75,47,30,0.00,40.00,5,3,12,0.00
2013-3-29,55.0,31.8,10.0,28.0,14.0,7.0,89,57,21,0.00,40.00,5,2,12,0.00
2013-3-30,39.0,33.2,23.0,37.0,28.7,16.0,97,85,54,0.00,40.00,6,3,15,0.00
2013-3-31,37.0,28.9,21.0,32.0,22.3,7.0,98,79,50,0.00,40.00,11,5,26,0.00
2013-4-1,28.0,21.1,17.0,14.0,8.0,4.0,85,58,38,0.00,40.00,9,6,20,0.00
2013-4-2,34.0,19.2,0.0,11.0,2.1,-5.0,82,52,25,0.00,40.00,9,4,21,0.00
2013-4-3,46.0,24.0,-2.0,14.0,1.9,-7.0,82,47,16,0.00,40.00,8,3,20,0.00
2013-4-4,46.0,37.9,24.0,30.0,20.6,8.0,79,51,34,0.00,40.00,10,6,23,0.00
2013-4-5,42.0,29.0,13.0,19.0,11.1,4.0,88,53,21,0.00,40.00,5,3,16,0.00
2013-4-6,35.0,31.2,28.0,32.0,26.1,13.0,97,82,52,0.00,40.00,9,5,19,0.00
2013-4-7,42.0,33.0,29.0,31.0,29.3,27.0,97,87,61,0.00,40.00,5,3,14,0.00
2013-4-8,38.0,33.6,31.0,35.0,31.7,28.0,97,93,87,0.00,40.00,4,3,11,0.00
2013-4-9,39.0,33.0,27.0,33.0,27.8,14.0,98,83,47,0.00,40.00,8,4,17,0.00
2013-4-10,43.0,32.9,23.0,25.0,15.9,8.0,87,53,24,0.00,40.00,8,5,20,0.00
2013-4-11,33.0,29.5,26.0,22.0,18.3,14.0,78,63,49,0.00,40.00,10,6,26,0.00
2013-4-12,34.0,28.0,26.0,26.0,23.9,20.0,93,85,70,0.00,40.00,8,6,22,0.00
2013-4-13,37.0,28.8,24.0,27.0,22.6,19.0,93,79,55,0.00,40.00,7,4,16,0.00
2013-4-14,46.0,31.1,12.0,30.0,21.5,9.0,96,72,38,0.00,40.00,7,3,17,0.00
2013-4-15,48.0,38.1,32.0,37.0,29.3,22.0,97,73,41,0.00,40.00,11,6,25,0.00
2013-4-16,46.0,36.8,29.0,30.0,26.3,21.0,84,66,44,0.00,40.00,8,5,17,0.00
2013-4-17,46.0,34.2,30.0,29.0,26.9,24.0,93,76,49,0.00,40.00,6,4,14,0.00
2013-4-18,33.0,31.8,30.0,32.0,30.5,28.0,96,95,91,0.00,40.00,8,5,19,0.09
2013-4-19,31.0,25.6,20.0,30.0,23.2,17.0,96,90,81,0.00,40.00,10,8,22,0.08
2013-4-20,33.0,22.0,6.0,21.0,15.8,2.0,90,78,57,0.00,40.00,7,3,17,0.02
2013-4-21,44.0,29.1,10.0,28.0,19.9,6.0,87,70,49,0.00,40.00,11,6,24,0.01
2013-4-22,52.0,39.0,31.0,36.0,30.5,22.0,97,75,35,0.00,40.00,7,5,20,0.01
2013-4-23,36.0,31.3,19.0,31.0,28.2,16.0,95,88,66,0.00,40.00,8,5,17,0.01
2013-4-24,51.0,31.0,9.0,28.0,17.7,5.0,92,64,27,0.00,40.00,7,2,16,0.02
2013-4-25,51.0,38.0,27.0,31.0,25.9,19.0,96,67,29,0.00,40.00,7,4,15,0.08
2013-4-26,64.0,43.2,25.0,38.0,29.9,22.0,93,64,31,0.00,40.00,8,4,17,0.36
2013-4-27,74.0,50.2,30.0,41.0,33.0,29.0,97,61,22,0.00,40.00,6,2,14,2.03
2013-4-28,72.0,54.0,37.0,43.0,38.7,32.0,94,61,30,0.00,40.00,8,4,18,2.15
2013-4-29,72.0,54.2,39.0,57.0,45.5,39.0,99,77,37,0.00,40.00,5,2,13,1.28
2013-4-30,77.0,57.0,41.0,57.0,49.5,39.0,99,79,49,0.00,40.00,9,4,21,0.11
2013-5-1,43.0,39.2,32.0,41.0,34.3,27.0,97,83,68,0.00,40.00,6,3,14,0.01
2013-5-2,32.0,30.1,28.0,31.0,28.3,26.0,97,93,87,0.00,40.00,7,5,16,0.03
2013-5-3,34.0,29.4,27.0,30.0,27.3,25.0,96,92,86,0.00,40.00,6,5,15,0.13
2013-5-4,56.0,39.0,30.0,43.0,34.2,29.0,97,84,58,0.00,40.00,6,3,12,0.33
2013-5-5,61.0,43.1,33.0,41.0,35.3,29.0,97,77,47,0.00,40.00,6,3,11,0.04
2013-5-6,74.0,49.0,26.0,42.0,34.9,25.0,96,66,28,0.00,40.00,6,2,12,0.00
2013-5-7,78.0,54.4,33.0,53.0,36.1,28.0,98,62,16,0.00,40.00,8,2,16,0.00
2013-5-8,80.0,59.8,38.0,47.0,38.5,35.0,95,54,20,0.00,40.00,5,2,13,0.00
2013-5-9,54.0,40.4,34.0,40.0,35.1,27.0,96,82,54,0.00,40.00,7,5,18,0.29
2013-5-10,54.0,41.7,30.0,28.0,23.0,13.0,83,52,21,0.00,40.00,7,5,17,0.01
2013-5-11,41.0,35.4,31.0,33.0,27.8,19.0,96,75,50,0.00,40.00,9,6,24,0.16
2013-5-12,43.0,33.4,25.0,30.0,23.5,15.0,96,70,35,0.00,40.00,9,6,22,0.30
2013-5-13,58.0,39.8,17.0,27.0,18.0,13.0,91,50,18,0.00,40.00,8,3,16,0.02
2013-5-14,74.0,55.2,40.0,43.0,35.7,26.0,70,50,31,0.00,40.00,8,5,18,0.00
2013-5-15,74.0,63.7,51.0,46.0,38.6,32.0,69,42,24,0.00,40.00,11,7,26,0.00
2013-5-16,68.0,48.8,33.0,41.0,13.0,-99.9,95,50,20,0.00,40.00,7,4,15,0.00
2013-5-17,73.0,47.7,35.0,40.0,33.8,-99.9,92,65,26,0.00,40.00,7,3,15,0.00
2013-5-18,66.0,55.0,49.0,59.0,48.6,39.0,96,80,62,0.00,40.00,7,4,14,0.46
2013-5-19,80.0,61.8,51.0,61.0,52.7,47.0,92,74,51,0.00,40.00,9,5,17,0.01
2013-5-20,71.0,54.2,45.0,54.0,48.2,44.0,99,83,52,0.00,40.00,7,5,16,0.12
2013-5-21,63.0,46.1,41.0,58.0,44.8,40.0,99,96,76,0.00,40.00,7,5,16,1.68
2013-5-22,46.0,43.3,41.0,45.0,42.7,39.0,99,98,96,0.00,40.00,7,5,20,1.06
2013-5-23,51.0,40.2,30.0,39.0,30.1,24.0,93,71,38,0.00,40.00,7,5,17,0.17
2013-5-24,67.0,43.9,22.0,38.0,27.2,20.0,95,60,23,0.00,40.00,5,2,18,0.01
2013-5-25,68.0,52.0,35.0,38.0,31.5,26.0,89,50,26,0.00,40.00,7,4,15,0.00
2013-5-26,73.0,53.2,32.0,36.0,28.8,21.0,86,45,15,0.00,40.00,7,4,16,0.00
2013-5-27,71.0,54.8,35.0,35.0,31.3,28.0,81,46,23,0.00,40.00,8,4,18,0.00
2013-5-28,65.0,56.2,50.0,52.0,43.3,34.0,86,62,48,0.00,40.00,6,3,12,0.00
2013-5-29,81.0,63.6,51.0,60.0,52.8,48.0,97,72,34,0.00,40.00,6,3,13,0.01
2013-5-30,87.0,69.9,59.0,66.0,61.6,52.0,99,79,39,0.00,40.00,10,5,22,0.47
2013-5-31,85.0,68.8,56.0,64.0,56.9,45.0,98,70,32,0.00,40.00,10,6,23,0.30
2013-6-1,68.0,55.8,39.0,58.0,51.3,38.0,98,86,64,0.00,40.00,7,4,15,0.29
2013-6-2,55.0,43.5,35.0,38.0,35.4,31.0,97,77,41,0.00,40.00,9,5,17,0.09
2013-6-3,61.0,44.5,27.0,38.0,28.1,21.0,96,62,21,0.00,40.00,8,3,19,0.01
2013-6-4,67.0,48.0,28.0,45.0,31.9,25.0,97,62,22,0.00,40.00,6,2,11,0.00
2013-6-5,54.0,48.7,44.0,47.0,44.0,40.0,98,84,72,0.00,40.00,5,3,13,0.41
2013-6-6,56.0,49.9,45.0,49.0,45.3,42.0,98,86,59,0.00,40.00,6,4,12,0.53
2013-6-7,72.0,52.8,32.0,45.0,38.0,31.0,97,65,28,0.00,40.00,5,2,13,0.01
2013-6-8,74.0,57.7,43.0,50.0,43.8,40.0,96,65,33,0.00,40.00,5,2,13,0.00
2013-6-9,71.0,56.0,40.0,55.0,47.2,39.0,98,76,43,0.00,40.00,7,3,17,0.01
2013-6-10,76.0,66.8,56.0,61.0,56.3,51.0,94,70,50,0.00,40.00,6,3,12,0.01
2013-6-11,77.0,64.4,50.0,62.0,53.4,44.0,99,73,34,0.00,40.00,7,3,14,0.00
2013-6-12,80.0,62.0,40.0,57.0,45.3,39.0,98,63,29,0.00,40.00,6,2,14,0.00
2013-6-13,68.0,57.6,47.0,51.0,48.4,43.0,94,73,52,0.00,40.00,6,4,17,0.00
2013-6-14,76.0,54.3,34.0,54.0,39.1,33.0,97,67,26,0.00,40.00,7,2,12,0.00
2013-6-15,67.0,59.4,46.0,63.0,55.8,40.0,98,88,63,0.00,40.00,4,2,9,0.17
2013-6-16,78.0,64.3,48.0,60.0,52.1,45.0,99,71,33,0.00,40.00,8,4,25,0.08
2013-6-17,60.0,51.2,38.0,53.0,48.3,33.0,99,91,57,0.00,40.00,6,3,11,0.21
2013-6-18,74.0,52.1,29.0,52.0,35.1,28.0,97,61,28,0.00,40.00,5,2,13,0.03
2013-6-19,79.0,61.0,40.0,51.0,43.6,38.0,96,59,31,0.00,40.00,6,3,16,0.00
2013-6-20,72.0,60.4,49.0,66.0,55.7,48.0,98,86,65,0.00,40.00,4,1,8,0.07
2013-6-22,70.0,64.6,59.0,62.0,60.7,58.0,97,88,75,0.00,40.00,7,3,20,0.00
2013-6-23,86.0,71.2,60.0,69.0,64.2,59.0,99,81,54,0.00,40.00,10,4,21,0.10
2013-6-24,87.0,72.5,58.0,66.0,59.8,55.0,99,70,38,0.00,40.00,7,3,14,0.01
2013-6-25,90.0,71.8,54.0,70.0,58.9,52.0,99,71,28,0.00,40.00,4,2,11,0.00
2013-6-26,83.0,64.0,55.0,71.0,60.7,54.0,99,90,67,0.00,40.00,7,2,27,0.39
2013-6-27,84.0,69.5,58.0,69.0,60.8,56.0,99,78,40,0.00,40.00,6,3,15,0.40
2013-6-28,74.0,62.2,57.0,65.0,59.8,56.0,99,92,65,0.00,40.00,5,2,13,0.23
2013-6-29,71.0,60.1,48.0,58.0,53.7,45.0,99,82,48,0.00,40.00,8,4,15,0.23
2013-6-30,81.0,62.4,35.0,56.0,45.4,34.0,98,62,27,0.00,40.00,7,3,14,0.02
2013-7-1,74.0,59.4,43.0,56.0,47.3,37.0,98,70,38,0.00,40.00,7,3,16,0.00
2013-7-2,79.0,55.6,32.0,53.0,40.1,31.0,97,66,27,0.00,40.00,6,2,12,0.00
2013-7-3,84.0,62.1,40.0,60.0,46.4,39.0,98,65,26,0.00,40.00,5,2,13,0.00
2013-7-4,85.0,68.9,52.0,61.0,55.3,51.0,99,68,34,0.00,40.00,6,3,14,0.00
2013-7-5,88.0,75.3,57.0,62.0,56.6,53.0,96,56,30,0.00,40.00,8,5,19,0.00
2013-7-6,91.0,76.4,69.0,69.0,60.4,56.0,93,59,39,0.00,40.00,8,5,19,0.01
2013-7-7,83.0,72.2,62.0,71.0,66.7,59.0,99,84,61,0.00,40.00,5,3,18,0.85
2013-7-8,79.0,63.6,56.0,67.0,60.9,56.0,99,91,67,0.00,40.00,5,3,12,0.20
2013-7-9,81.0,66.5,55.0,72.0,64.9,55.0,100,95,72,0.00,40.00,6,2,16,0.01
2013-7-10,72.0,62.4,52.0,62.0,51.8,-99.9,100,76,49,0.00,40.00,8,5,23,0.00
2013-7-11,83.0,63.6,44.0,61.0,51.9,44.0,100,73,33,0.00,40.00,5,2,13,0.00
2013-7-12,85.0,68.7,53.0,63.0,57.7,53.0,100,73,43,0.00,40.00,8,4,21,0.00
2013-7-13,85.0,72.2,64.0,67.0,60.8,56.0,88,69,50,0.00,40.00,6,4,12,0.00
2013-7-14,88.0,73.6,63.0,68.0,63.5,60.0,100,75,43,0.00,40.00,6,3,14,0.00
2013-7-15,89.0,68.0,57.0,71.0,62.2,57.0,100,85,44,0.00,40.00,6,2,14,0.00
2013-7-16,93.0,84.3,72.0,75.0,70.9,67.0,94,67,49,0.00,40.00,7,3,16,0.07
2013-7-17,89.0,78.0,66.0,73.0,69.1,66.0,100,77,52,0.00,40.00,6,3,16,0.06
2013-7-18,91.0,75.7,65.0,77.0,69.7,63.0,100,84,52,0.00,40.00,8,3,19,0.12
2013-7-19,78.0,71.0,56.0,72.0,62.3,55.0,99,76,51,0.00,40.00,10,5,25,0.38
2013-7-20,69.0,59.5,46.0,61.0,46.9,-99.9,100,68,42,0.00,40.00,6,3,14,0.36
2013-7-21,75.0,55.9,36.0,57.0,47.7,36.0,100,78,48,0.00,40.00,5,2,13,0.00
2013-7-22,82.0,63.6,51.0,71.0,58.4,51.0,100,85,58,0.00,40.00,8,4,20,0.07
2013-7-23,66.0,57.9,46.0,54.0,47.8,44.0,99,71,48,0.00,40.00,8,5,20,0.03
2013-7-24,74.0,55.3,37.0,57.0,48.4,37.0,100,81,45,0.00,40.00,4,2,11,0.00
2013-7-25,79.0,61.2,47.0,66.0,57.5,47.0,100,89,58,0.00,40.00,6,2,15,0.02
2013-7-26,67.0,55.3,46.0,61.0,54.2,45.0,100,96,82,0.00,40.00,7,3,16,0.01
2013-7-27,55.0,49.2,44.0,50.0,46.9,44.0,100,92,76,0.00,40.00,5,4,12,0.00
2013-7-28,51.0,48.5,44.0,50.0,48.1,43.0,100,98,95,0.00,40.00,7,5,16,0.00
2013-7-29,74.0,57.0,38.0,56.0,49.4,38.0,100,80,44,0.00,40.00,4,2,10,0.00
2013-7-30,72.0,61.0,48.0,64.0,55.9,48.0,100,85,58,0.00,40.00,7,2,13,0.00
2013-7-31,78.0,63.5,52.0,66.0,57.6,49.0,100,83,51,0.00,40.00,7,3,13,0.00
2013-8-1,73.0,56.9,45.0,58.0,51.1,45.0,100,85,48,0.00,40.00,6,2,16,0.00
2013-8-2,71.0,60.9,48.0,59.0,54.0,48.0,100,81,51,0.00,40.00,7,3,15,0.00
2013-8-3,69.0,58.1,45.0,58.0,51.6,45.0,100,81,58,0.00,40.00,7,3,16,0.00
2013-8-4,72.0,56.4,38.0,55.0,46.8,38.0,100,75,40,0.00,40.00,4,2,10,0.00
2013-8-5,64.0,54.6,43.0,63.0,54.0,43.0,100,98,91,0.00,40.00,5,2,10,0.04
2013-8-6,76.0,64.8,56.0,68.0,60.8,56.0,100,88,67,0.00,40.00,5,2,14,0.01
2013-8-7,69.0,60.3,47.0,60.0,54.7,44.0,100,86,42,0.00,40.00,7,3,15,0.05
2013-8-8,70.0,56.6,39.0,60.0,52.1,39.0,100,86,59,0.00,40.00,4,1,9,0.03
2013-8-9,68.0,58.0,47.0,59.0,51.5,45.0,100,81,54,0.00,40.00,8,3,17,0.01
2013-8-10,73.0,58.6,40.0,58.0,49.3,40.0,100,76,46,0.00,40.00,5,2,12,0.00
2013-8-11,58.0,46.0,42.0,58.0,46.0,42.0,100,100,100,0.00,40.00,1,0,3,0.00
2013-9-17,71.0,51.5,30.0,48.0,39.3,30.0,99,69,32,0.00,40.00,8,4,16,0.00
2013-9-18,62.0,54.5,52.0,61.0,51.9,48.0,97,91,86,0.00,40.00,6,4,15,0.00
2013-9-19,81.0,68.6,63.0,71.0,65.2,62.0,99,90,68,0.00,40.00,7,4,16,0.02
2013-9-20,67.0,60.3,48.0,64.0,57.3,45.0,99,90,65,0.00,40.00,8,4,19,0.02
2013-9-21,48.0,44.9,35.0,47.0,40.8,34.0,100,87,68,0.00,40.00,6,4,15,0.01
2013-9-22,61.0,46.6,36.0,42.0,38.0,34.0,99,76,44,0.00,40.00,5,2,11,0.00
2013-9-23,70.0,52.0,39.0,49.0,43.1,37.0,94,75,47,0.00,40.00,7,5,15,0.00
2013-9-24,74.0,54.4,38.0,53.0,46.8,37.0,99,79,44,0.00,40.00,6,3,12,0.00
2013-9-25,76.0,54.0,37.0,56.0,46.1,37.0,99,80,35,0.00,40.00,5,2,11,0.00
2013-9-26,76.0,53.3,34.0,51.0,44.6,34.0,99,77,34,0.00,40.00,7,3,13,0.00
2013-9-27,82.0,64.2,46.0,53.0,49.6,44.0,92,63,32,0.00,40.00,10,6,22,0.00
2013-9-28,77.0,63.9,51.0,57.0,51.3,43.0,96,65,44,0.00,40.00,13,7,29,0.00
2013-9-29,72.0,53.1,35.0,50.0,41.9,34.0,98,74,27,0.00,40.00,6,3,14,0.00
2013-9-30,73.0,60.2,42.0,46.0,43.2,40.0,99,58,33,0.00,40.00,10,6,25,0.00
2013-10-3,57.0,51.9,48.0,52.0,49.1,43.0,99,90,73,0.00,40.00,6,3,14,0.01
2013-10-4,59.0,53.2,50.0,52.0,49.5,46.0,96,88,71,0.00,40.00,7,5,18,0.01
2013-10-5,52.0,49.8,48.0,51.0,48.5,47.0,99,96,89,0.00,40.00,7,5,15,0.00
2013-10-6,56.0,50.8,47.0,54.0,50.4,46.0,100,98,92,0.00,40.00,6,3,12,0.00
2013-10-7,55.0,45.8,32.0,46.0,41.3,32.0,99,86,57,0.00,40.00,7,4,18,0.01
2013-10-8,73.0,54.4,29.0,45.0,39.1,29.0,99,63,33,0.00,40.00,10,6,21,0.01
2013-10-9,73.0,63.8,51.0,49.0,44.6,41.0,79,51,36,0.00,40.00,9,6,19,0.00
2013-10-17,51.0,37.0,24.0,43.0,33.7,23.0,97,89,66,0.00,40.00,4,1,10,0.00
2013-10-18,43.0,39.2,28.0,42.0,37.7,27.0,99,95,82,0.00,40.00,6,2,13,0.00
2013-10-19,49.0,34.8,27.0,39.0,31.6,26.0,98,90,48,0.00,40.00,5,2,14,0.00
2013-10-20,43.0,35.3,31.0,37.0,33.6,31.0,99,94,73,0.00,40.00,4,2,11,0.00
2013-10-21,33.0,31.6,29.0,32.0,29.3,24.0,99,91,77,0.00,40.00,6,4,18,0.00
2013-10-22,39.0,33.0,30.0,34.0,30.9,27.0,98,92,73,0.00,40.00,7,4,17,0.02
2013-10-23,36.0,31.3,27.0,32.0,28.2,26.0,98,89,67,0.00,40.00,6,3,15,0.02
2013-10-24,40.0,32.7,29.0,37.0,30.4,28.0,98,92,75,0.00,40.00,5,2,15,0.00
2013-10-25,40.0,34.6,28.0,34.0,30.0,27.0,98,84,66,0.00,40.00,9,4,19,0.00
2013-10-26,42.0,36.6,31.0,38.0,30.3,24.0,97,79,60,0.00,40.00,8,5,21,0.00
2013-10-27,46.0,35.8,30.0,34.0,29.6,27.0,95,80,50,0.00,40.00,7,3,19,0.00
2013-10-28,36.0,28.9,16.0,29.0,18.2,-99.9,92,68,49,0.00,40.00,6,3,19,0.05
2013-10-29,36.0,25.2,13.0,30.0,20.6,10.0,96,84,55,0.00,40.00,5,2,12,0.05
2013-10-30,46.0,37.5,32.0,45.0,36.6,31.0,99,97,94,0.00,40.00,5,2,11,0.18
2013-10-31,51.0,47.5,45.0,50.0,47.2,42.0,100,99,97,0.00,40.00,6,2,12,0.49
2013-11-1,43.0,39.0,35.0,42.0,38.0,34.0,99,97,93,0.00,40.00,6,4,16,0.30
2013-11-2,42.0,35.2,30.0,36.0,32.3,29.0,99,90,69,0.00,40.00,4,2,9,0.03
2013-11-3,42.0,36.2,28.0,33.0,30.0,27.0,97,79,58,0.00,40.00,11,5,20,0.00
2013-11-4,48.0,43.9,41.0,42.0,36.7,33.0,95,76,63,0.00,40.00,9,8,22,0.01
2013-11-5,50.0,40.4,28.0,38.0,29.6,25.0,94,68,37,0.00,40.00,6,3,17,0.03
2013-11-6,34.0,31.8,29.0,32.0,29.9,25.0,98,92,81,0.00,40.00,6,3,15,0.03
2013-11-7,34.0,29.7,28.0,30.0,27.0,25.0,95,90,79,0.00,40.00,5,3,10,0.04
2013-11-8,40.0,31.8,20.0,28.0,25.3,18.0,96,78,52,0.00,40.00,7,3,18,0.34
2013-11-9,35.0,33.7,33.0,34.0,32.4,29.0,98,96,84,0.00,40.00,7,5,17,0.37
2013-11-10,37.0,33.3,31.0,32.0,30.2,27.0,97,89,71,0.00,40.00,7,4,21,0.39
2013-11-11,33.0,22.8,19.0,31.0,18.0,13.0,97,82,69,0.00,40.00,8,6,21,0.01
2013-11-12,27.0,20.8,16.0,16.0,13.2,5.0,88,74,46,0.00,40.00,6,4,16,0.06
2013-11-13,50.0,35.5,15.0,29.0,21.9,7.0,72,58,41,0.00,40.00,8,6,21,0.33
2013-11-14,44.0,36.2,27.0,31.0,29.5,26.0,97,78,59,0.00,40.00,4,2,11,0.11
2013-11-15,53.0,37.8,27.0,37.0,31.8,26.0,98,81,51,0.00,40.00,6,3,14,0.00
2013-11-16,47.0,40.4,34.0,46.0,36.2,31.0,99,86,72,0.00,40.00,8,5,20,0.72
2013-11-17,47.0,42.7,34.0,47.0,40.9,28.0,99,94,78,0.00,40.00,12,5,26,0.09
2013-11-18,33.0,27.0,24.0,27.0,21.5,16.0,93,79,68,0.00,40.00,10,8,29,0.02
2013-11-19,37.0,28.9,20.0,21.0,16.6,15.0,90,61,41,0.00,40.00,8,5,19,0.19
2013-11-20,39.0,35.0,32.0,30.0,23.0,19.0,94,63,47,0.00,40.00,9,7,22,0.01
2013-11-21,35.0,31.6,25.0,34.0,30.5,23.0,98,96,91,0.00,40.00,6,3,15,0.10
2013-11-22,32.0,23.5,16.0,23.0,17.4,10.0,92,78,51,0.00,40.00,7,5,20,0.14
2013-11-23,15.0,10.2,7.0,11.0,5.0,2.0,86,79,71,0.00,40.00,8,5,17,0.01
2013-11-24,20.0,12.9,8.0,8.0,4.5,1.0,84,70,54,0.00,40.00,9,5,21,0.00
2013-11-25,33.0,28.2,21.0,28.0,21.0,10.0,92,74,63,0.00,40.00,8,6,19,0.01
2013-11-26,28.0,17.3,11.0,23.0,11.8,7.0,86,79,66,0.00,40.00,8,5,20,0.01
2013-11-27,25.0,15.9,8.0,15.0,10.5,3.0,89,80,55,0.00,40.00,5,2,10,0.07
2013-11-28,26.0,18.0,12.0,18.0,12.8,9.0,88,80,62,0.00,40.00,4,1,7,0.01
2013-11-29,26.0,18.7,-1.0,21.0,13.7,-6.0,90,80,74,0.00,40.00,6,3,15,0.01
2013-11-30,33.0,27.4,22.0,25.0,21.4,16.0,92,78,67,0.00,40.00,5,3,14,0.03
2013-12-1,30.0,27.6,25.0,28.0,26.1,24.0,96,94,89,0.00,40.00,4,1,9,0.01
2013-12-2,32.0,27.7,24.0,24.0,23.5,23.0,95,84,71,0.00,40.00,5,2,14,0.00
2013-12-3,29.0,26.0,24.0,25.0,22.4,20.0,92,86,74,0.00,40.00,7,5,15,0.00
2013-12-12,13.0,1.9,-14.0,4.0,-5.5,-21.0,82,70,60,0.00,40.00,6,4,13,0.00
2013-12-13,12.0,2.8,-6.0,5.0,-5.1,-12.0,83,70,46,0.00,40.00,5,2,15,0.00
2013-12-14,17.0,7.2,-6.0,8.0,1.3,-12.0,85,77,64,0.00,40.00,5,2,9,0.00
2013-12-15,12.0,8.5,-1.0,7.0,3.6,-7.0,85,80,72,0.00,40.00,7,4,16,0.00
2013-12-16,12.0,4.4,-19.0,6.0,-1.6,-27.0,83,75,65,0.00,40.00,5,3,13,0.00
2013-12-17,25.0,14.2,3.0,21.0,10.4,-2.0,89,85,79,0.00,40.00,7,4,16,0.00
2013-12-18,21.0,12.0,4.0,10.0,5.8,-2.0,84,76,61,0.00,40.00,6,3,13,0.00
2013-12-19,21.0,14.3,2.0,19.0,9.6,-2.0,91,81,70,0.00,40.00,7,4,16,0.00
2013-12-20,21.0,13.7,4.0,13.0,9.2,-1.0,88,82,72,0.00,40.00,3,2,8,0.00
2013-12-21,27.0,18.2,13.0,18.0,14.1,10.0,92,84,66,0.00,40.00,4,1,8,0.00
2013-12-22,24.0,19.5,14.0,20.0,16.2,10.0,93,87,78,0.00,40.00,6,4,15,0.00
2013-12-23,15.0,11.2,2.0,10.0,5.6,-3.0,85,78,67,0.00,40.00,5,3,12,0.00
2013-12-24,21.0,9.6,-1.0,7.0,1.3,-6.0,81,70,50,0.00,40.00,7,3,15,0.00
2013-12-25,18.0,12.0,9.0,10.0,6.5,3.0,86,78,66,0.00,40.00,6,4,15,0.00
2013-12-26,14.0,9.5,1.0,11.0,4.2,-4.0,87,78,69,0.00,40.00,4,2,11,0.00
2013-12-28,35.0,29.5,19.0,30.0,26.7,17.0,95,90,79,0.00,40.00,8,3,20,0.00
2013-12-29,18.0,4.9,-7.0,15.0,-1.0,-13.0,89,76,63,0.00,40.00,8,5,19,0.00
2013-12-30,6.0,-6.3,-14.0,-6.0,-14.8,-22.0,72,66,53,0.00,40.00,5,3,10,0.00
2013-12-31,2.0,-6.7,-13.0,-7.0,-14.1,-20.0,74,70,64,0.00,40.00,7,4,17,0.00
2014-1-1,3.0,-4.4,-16.0,-6.0,-12.0,-24.0,74,69,61,0.00,40.00,3,1,6,0.00
2014-1-2,5.0,-5.9,-16.0,-4.0,-13.7,-23.0,73,68,62,0.00,40.00,4,1,9,0.00